sensor_id;sensor_type;location;lat;lon;timestamp;pressure;altitude;pressure_sealevel;temperature;humidity
63204;BME280;49297;43.210;27.914;2023-05-12T00:02:16;101760.13;;;12.85;66.35
63204;BME280;49297;43.210;27.914;2023-05-12T00:04:43;101757.31;;;12.87;66.43
63204;BME280;49297;43.210;27.914;2023-05-12T00:07:09;101764.31;;;12.88;66.27
63204;BME280;49297;43.210;27.914;2023-05-12T00:09:37;101751.16;;;12.86;66.54
63204;BME280;49297;43.210;27.914;2023-05-12T00:12:04;101756.47;;;12.86;66.57
63204;BME280;49297;43.210;27.914;2023-05-12T00:14:30;101749.72;;;12.82;66.33
63204;BME280;49297;43.210;27.914;2023-05-12T00:17:03;101749.84;;;12.81;66.64
63204;BME280;49297;43.210;27.914;2023-05-12T00:19:34;101742.00;;;12.79;66.53
63204;BME280;49297;43.210;27.914;2023-05-12T00:22:02;101749.97;;;12.79;66.49
63204;BME280;49297;43.210;27.914;2023-05-12T00:24:27;101751.09;;;12.76;66.68
63204;BME280;49297;43.210;27.914;2023-05-12T00:26:55;101746.00;;;12.73;66.96
63204;BME280;49297;43.210;27.914;2023-05-12T00:29:22;101756.66;;;12.73;66.70
63204;BME280;49297;43.210;27.914;2023-05-12T00:31:48;101750.63;;;12.71;66.73
63204;BME280;49297;43.210;27.914;2023-05-12T00:34:15;101757.59;;;12.72;66.59
63204;BME280;49297;43.210;27.914;2023-05-12T00:36:42;101746.97;;;12.72;66.67
63204;BME280;49297;43.210;27.914;2023-05-12T00:39:07;101753.16;;;12.73;66.46
63204;BME280;49297;43.210;27.914;2023-05-12T00:41:35;101746.13;;;12.72;66.47
63204;BME280;49297;43.210;27.914;2023-05-12T00:44:02;101741.81;;;12.71;66.52
63204;BME280;49297;43.210;27.914;2023-05-12T00:46:28;101739.00;;;12.72;66.35
63204;BME280;49297;43.210;27.914;2023-05-12T00:48:54;101751.56;;;12.70;66.64
63204;BME280;49297;43.210;27.914;2023-05-12T00:51:21;101747.25;;;12.69;66.55
63204;BME280;49297;43.210;27.914;2023-05-12T00:53:48;101751.81;;;12.67;66.43
63204;BME280;49297;43.210;27.914;2023-05-12T00:56:16;101750.16;;;12.66;66.73
63204;BME280;49297;43.210;27.914;2023-05-12T00:58:43;101745.09;;;12.63;66.42
63204;BME280;49297;43.210;27.914;2023-05-12T01:01:09;101745.09;;;12.63;66.55
63204;BME280;49297;43.210;27.914;2023-05-12T01:03:34;101756.81;;;12.61;66.40
63204;BME280;49297;43.210;27.914;2023-05-12T01:06:12;101751.75;;;12.57;66.78
63204;BME280;49297;43.210;27.914;2023-05-12T01:08:41;101749.34;;;12.54;66.79
63204;BME280;49297;43.210;27.914;2023-05-12T01:11:07;101737.63;;;12.57;66.81
63204;BME280;49297;43.210;27.914;2023-05-12T01:13:33;101743.78;;;12.57;66.72
63204;BME280;49297;43.210;27.914;2023-05-12T01:16:01;101734.84;;;12.59;66.65
63204;BME280;49297;43.210;27.914;2023-05-12T01:18:28;101733.97;;;12.58;66.47
63204;BME280;49297;43.210;27.914;2023-05-12T01:20:59;101730.63;;;12.56;66.61
63204;BME280;49297;43.210;27.914;2023-05-12T01:23:33;101728.94;;;12.55;66.75
63204;BME280;49297;43.210;27.914;2023-05-12T01:26:09;101729.06;;;12.53;66.47
63204;BME280;49297;43.210;27.914;2023-05-12T01:28:36;101736.31;;;12.51;66.68
63204;BME280;49297;43.210;27.914;2023-05-12T01:31:06;101726.78;;;12.49;66.39
63204;BME280;49297;43.210;27.914;2023-05-12T01:33:34;101724.25;;;12.47;66.80
63204;BME280;49297;43.210;27.914;2023-05-12T01:36:00;101728.72;;;12.47;66.88
63204;BME280;49297;43.210;27.914;2023-05-12T01:38:26;101726.91;;;12.47;66.91
63204;BME280;49297;43.210;27.914;2023-05-12T01:40:52;101722.44;;;12.48;67.03
63204;BME280;49297;43.210;27.914;2023-05-12T01:43:20;101724.13;;;12.49;66.64
63204;BME280;49297;43.210;27.914;2023-05-12T01:45:46;101718.22;;;12.45;67.21
63204;BME280;49297;43.210;27.914;2023-05-12T01:48:12;101713.88;;;12.44;67.45
63204;BME280;49297;43.210;27.914;2023-05-12T01:50:40;101710.50;;;12.42;67.18
63204;BME280;49297;43.210;27.914;2023-05-12T01:53:08;101722.34;;;12.38;67.30
63204;BME280;49297;43.210;27.914;2023-05-12T01:55:40;101711.72;;;12.38;67.68
63204;BME280;49297;43.210;27.914;2023-05-12T01:58:06;101720.53;;;12.38;67.55
63204;BME280;49297;43.210;27.914;2023-05-12T02:00:32;101714.50;;;12.36;67.58
63204;BME280;49297;43.210;27.914;2023-05-12T02:02:58;101711.59;;;12.40;67.44
63204;BME280;49297;43.210;27.914;2023-05-12T02:05:24;101714.97;;;12.42;67.38
63204;BME280;49297;43.210;27.914;2023-05-12T02:07:51;101720.28;;;12.42;67.32
63204;BME280;49297;43.210;27.914;2023-05-12T02:10:18;101714.84;;;12.43;67.18
63204;BME280;49297;43.210;27.914;2023-05-12T02:12:44;101716.41;;;12.46;67.09
63204;BME280;49297;43.210;27.914;2023-05-12T02:15:10;101711.94;;;12.46;67.12
63204;BME280;49297;43.210;27.914;2023-05-12T02:17:36;101716.41;;;12.46;67.02
63204;BME280;49297;43.210;27.914;2023-05-12T02:20:01;101703.97;;;12.46;66.66
63204;BME280;49297;43.210;27.914;2023-05-12T02:22:28;101698.78;;;12.45;67.03
63204;BME280;49297;43.210;27.914;2023-05-12T02:24:55;101707.59;;;12.45;67.15
63204;BME280;49297;43.210;27.914;2023-05-12T02:27:40;101709.53;;;12.43;67.05
63204;BME280;49297;43.210;27.914;2023-05-12T02:30:07;101706.28;;;12.40;67.12
63204;BME280;49297;43.210;27.914;2023-05-12T02:32:36;101705.56;;;12.37;67.21
63204;BME280;49297;43.210;27.914;2023-05-12T02:35:02;101710.88;;;12.37;67.35
63204;BME280;49297;43.210;27.914;2023-05-12T02:37:28;101704.72;;;12.37;67.35
63204;BME280;49297;43.210;27.914;2023-05-12T02:39:54;101698.69;;;12.35;67.48
63204;BME280;49297;43.210;27.914;2023-05-12T02:42:21;101701.59;;;12.32;67.39
63204;BME280;49297;43.210;27.914;2023-05-12T02:44:47;101706.91;;;12.32;67.10
63204;BME280;49297;43.210;27.914;2023-05-12T02:47:13;101714.28;;;12.28;67.53
63204;BME280;49297;43.210;27.914;2023-05-12T02:49:39;101713.09;;;12.21;67.50
63204;BME280;49297;43.210;27.914;2023-05-12T02:52:05;101716.72;;;12.20;67.89
63204;BME280;49297;43.210;27.914;2023-05-12T02:54:31;101722.75;;;12.22;67.41
63204;BME280;49297;43.210;27.914;2023-05-12T02:57:03;101719.97;;;12.24;67.68
63204;BME280;49297;43.210;27.914;2023-05-12T02:59:31;101722.75;;;12.22;67.50
63204;BME280;49297;43.210;27.914;2023-05-12T03:01:57;101723.56;;;12.23;67.32
63204;BME280;49297;43.210;27.914;2023-05-12T03:04:24;101723.44;;;12.24;67.55
63204;BME280;49297;43.210;27.914;2023-05-12T03:07:08;101726.81;;;12.26;67.23
63204;BME280;49297;43.210;27.914;2023-05-12T03:09:34;101734.06;;;12.24;67.24
63204;BME280;49297;43.210;27.914;2023-05-12T03:12:02;101731.41;;;12.24;67.09
63204;BME280;49297;43.210;27.914;2023-05-12T03:14:28;101732.13;;;12.26;66.97
63204;BME280;49297;43.210;27.914;2023-05-12T03:16:55;101729.63;;;12.25;66.66
63204;BME280;49297;43.210;27.914;2023-05-12T03:19:23;101736.72;;;12.24;66.53
63204;BME280;49297;43.210;27.914;2023-05-12T03:21:48;101729.63;;;12.25;66.52
63204;BME280;49297;43.210;27.914;2023-05-12T03:24:14;101733.00;;;12.27;66.60
63204;BME280;49297;43.210;27.914;2023-05-12T03:26:42;101734.66;;;12.28;65.89
63204;BME280;49297;43.210;27.914;2023-05-12T03:29:08;101734.66;;;12.28;66.02
63204;BME280;49297;43.210;27.914;2023-05-12T03:31:35;101738.91;;;12.30;66.05
63204;BME280;49297;43.210;27.914;2023-05-12T03:34:01;101743.94;;;12.33;65.74
63204;BME280;49297;43.210;27.914;2023-05-12T03:36:26;101742.03;;;12.35;65.60
63204;BME280;49297;43.210;27.914;2023-05-12T03:38:52;101742.88;;;12.36;65.95
63204;BME280;49297;43.210;27.914;2023-05-12T03:41:20;101745.66;;;12.34;65.45
63204;BME280;49297;43.210;27.914;2023-05-12T03:43:46;101741.88;;;12.37;65.54
63204;BME280;49297;43.210;27.914;2023-05-12T03:46:13;101739.97;;;12.39;65.27
63204;BME280;49297;43.210;27.914;2023-05-12T03:48:42;101737.19;;;12.41;65.26
63204;BME280;49297;43.210;27.914;2023-05-12T03:51:08;101740.19;;;12.47;65.16
63204;BME280;49297;43.210;27.914;2023-05-12T03:53:34;101737.16;;;12.52;64.93
63204;BME280;49297;43.210;27.914;2023-05-12T03:56:04;101734.97;;;12.57;64.62
63204;BME280;49297;43.210;27.914;2023-05-12T03:58:32;101738.09;;;12.62;64.45
63204;BME280;49297;43.210;27.914;2023-05-12T04:00:58;101730.56;;;12.67;64.28
63204;BME280;49297;43.210;27.914;2023-05-12T04:03:27;101742.41;;;12.74;63.89
63204;BME280;49297;43.210;27.914;2023-05-12T04:05:57;101737.69;;;12.78;63.83
63204;BME280;49297;43.210;27.914;2023-05-12T04:08:25;101729.31;;;12.83;63.82
63204;BME280;49297;43.210;27.914;2023-05-12T04:10:56;101733.25;;;12.88;63.34
63204;BME280;49297;43.210;27.914;2023-05-12T04:13:27;101737.09;;;12.95;63.53
63204;BME280;49297;43.210;27.914;2023-05-12T04:15:55;101746.50;;;13.00;62.87
63204;BME280;49297;43.210;27.914;2023-05-12T04:18:21;101731.16;;;13.03;62.43
63204;BME280;49297;43.210;27.914;2023-05-12T04:20:47;101743.22;;;13.07;62.33
63204;BME280;49297;43.210;27.914;2023-05-12T04:23:13;101739.59;;;13.08;62.42
63204;BME280;49297;43.210;27.914;2023-05-12T04:25:42;101736.66;;;13.11;62.35
63204;BME280;49297;43.210;27.914;2023-05-12T04:28:08;101733.63;;;13.16;62.45
63204;BME280;49297;43.210;27.914;2023-05-12T04:30:35;101737.56;;;13.22;62.12
63204;BME280;49297;43.210;27.914;2023-05-12T04:33:03;101733.94;;;13.23;61.77
63204;BME280;49297;43.210;27.914;2023-05-12T04:35:30;101739.09;;;13.24;61.53
63204;BME280;49297;43.210;27.914;2023-05-12T04:37:56;101729.91;;;13.28;61.57
63204;BME280;49297;43.210;27.914;2023-05-12T04:40:22;101726.75;;;13.35;61.19
63204;BME280;49297;43.210;27.914;2023-05-12T04:42:50;101726.94;;;13.43;60.89
63204;BME280;49297;43.210;27.914;2023-05-12T04:45:16;101734.97;;;13.52;60.39
63204;BME280;49297;43.210;27.914;2023-05-12T04:47:42;101714.97;;;13.58;59.96
63204;BME280;49297;43.210;27.914;2023-05-12T04:50:10;101724.25;;;13.64;59.13
63204;BME280;49297;43.210;27.914;2023-05-12T04:52:40;101721.75;;;13.72;58.88
63204;BME280;49297;43.210;27.914;2023-05-12T04:55:08;101728.34;;;13.78;58.81
63204;BME280;49297;43.210;27.914;2023-05-12T04:57:40;101726.72;;;13.86;58.18
63204;BME280;49297;43.210;27.914;2023-05-12T05:00:12;101730.25;;;13.97;57.54
63204;BME280;49297;43.210;27.914;2023-05-12T05:02:39;101734.31;;;14.01;57.10
63204;BME280;49297;43.210;27.914;2023-05-12T05:05:06;101727.66;;;14.06;56.67
63204;BME280;49297;43.210;27.914;2023-05-12T05:07:32;101733.13;;;14.15;56.79
63204;BME280;49297;43.210;27.914;2023-05-12T05:09:58;101730.88;;;14.20;55.55
63204;BME280;49297;43.210;27.914;2023-05-12T05:12:26;101722.63;;;14.23;55.20
63204;BME280;49297;43.210;27.914;2023-05-12T05:14:53;101726.56;;;14.28;54.73
63204;BME280;49297;43.210;27.914;2023-05-12T05:17:19;101731.31;;;14.35;53.85
63204;BME280;49297;43.210;27.914;2023-05-12T05:19:46;101731.31;;;14.35;54.09
63204;BME280;49297;43.210;27.914;2023-05-12T05:22:12;101737.94;;;14.40;53.37
63204;BME280;49297;43.210;27.914;2023-05-12T05:24:38;101741.88;;;14.46;53.52
63204;BME280;49297;43.210;27.914;2023-05-12T05:27:04;101741.88;;;14.56;52.61
63204;BME280;49297;43.210;27.914;2023-05-12T05:29:32;101743.91;;;14.63;51.99
63204;BME280;49297;43.210;27.914;2023-05-12T05:31:57;101739.97;;;14.68;50.99
63204;BME280;49297;43.210;27.914;2023-05-12T05:34:23;101742.75;;;14.76;50.54
63204;BME280;49297;43.210;27.914;2023-05-12T05:36:50;101742.91;;;14.84;50.24
63204;BME280;49297;43.210;27.914;2023-05-12T05:39:16;101746.56;;;14.93;50.29
63204;BME280;49297;43.210;27.914;2023-05-12T05:41:42;101745.56;;;15.03;49.20
63204;BME280;49297;43.210;27.914;2023-05-12T05:44:09;101758.88;;;15.13;48.38
63204;BME280;49297;43.210;27.914;2023-05-12T05:46:35;101745.69;;;15.21;48.03
63204;BME280;49297;43.210;27.914;2023-05-12T05:49:01;101755.34;;;15.32;47.60
63204;BME280;49297;43.210;27.914;2023-05-12T05:51:27;101756.19;;;15.42;47.49
63204;BME280;49297;43.210;27.914;2023-05-12T05:53:54;101756.88;;;15.45;47.39
63204;BME280;49297;43.210;27.914;2023-05-12T05:56:20;101756.88;;;15.45;46.88
63204;BME280;49297;43.210;27.914;2023-05-12T05:58:47;101758.56;;;15.46;47.07
63204;BME280;49297;43.210;27.914;2023-05-12T06:01:13;101763.44;;;15.50;47.01
63204;BME280;49297;43.210;27.914;2023-05-12T06:03:42;101770.34;;;15.53;47.59
63204;BME280;49297;43.210;27.914;2023-05-12T06:06:08;101758.81;;;15.52;47.35
63204;BME280;49297;43.210;27.914;2023-05-12T06:08:33;101763.56;;;15.58;47.71
63204;BME280;49297;43.210;27.914;2023-05-12T06:10:59;101762.75;;;15.58;47.69
63204;BME280;49297;43.210;27.914;2023-05-12T06:13:28;101764.81;;;15.64;48.39
63204;BME280;49297;43.210;27.914;2023-05-12T06:15:54;101775.44;;;15.74;47.69
63204;BME280;49297;43.210;27.914;2023-05-12T06:18:38;101773.94;;;15.81;47.86
63204;BME280;49297;43.210;27.914;2023-05-12T06:21:04;101768.16;;;15.86;47.26
63204;BME280;49297;43.210;27.914;2023-05-12T06:23:30;101770.81;;;15.86;46.75
63204;BME280;49297;43.210;27.914;2023-05-12T06:25:56;101772.38;;;15.88;46.37
63204;BME280;49297;43.210;27.914;2023-05-12T06:28:22;101769.84;;;15.87;46.42
63204;BME280;49297;43.210;27.914;2023-05-12T06:30:48;101766.72;;;15.91;46.03
63204;BME280;49297;43.210;27.914;2023-05-12T06:33:15;101765.28;;;15.97;46.53
63204;BME280;49297;43.210;27.914;2023-05-12T06:35:41;101769.75;;;16.06;46.67
63204;BME280;49297;43.210;27.914;2023-05-12T06:38:07;101760.56;;;16.18;47.05
63204;BME280;49297;43.210;27.914;2023-05-12T06:40:34;101765.53;;;16.31;47.54
63204;BME280;49297;43.210;27.914;2023-05-12T06:43:01;101756.91;;;16.37;46.73
63204;BME280;49297;43.210;27.914;2023-05-12T06:45:29;101767.16;;;16.42;46.24
63204;BME280;49297;43.210;27.914;2023-05-12T06:47:55;101779.22;;;16.46;45.42
63204;BME280;49297;43.210;27.914;2023-05-12T06:50:22;101776.00;;;16.43;45.71
63204;BME280;49297;43.210;27.914;2023-05-12T06:52:48;101770.66;;;16.43;45.22
63204;BME280;49297;43.210;27.914;2023-05-12T06:55:15;101779.50;;;16.43;45.37
63204;BME280;49297;43.210;27.914;2023-05-12T06:57:45;101782.16;;;16.53;44.72
63204;BME280;49297;43.210;27.914;2023-05-12T07:00:13;101780.84;;;16.57;45.56
63204;BME280;49297;43.210;27.914;2023-05-12T07:02:40;101767.56;;;16.65;44.84
63204;BME280;49297;43.210;27.914;2023-05-12T07:05:07;101774.72;;;16.65;44.81
63204;BME280;49297;43.210;27.914;2023-05-12T07:07:33;101769.75;;;16.70;45.05
63204;BME280;49297;43.210;27.914;2023-05-12T07:10:00;101782.25;;;16.79;45.05
63204;BME280;49297;43.210;27.914;2023-05-12T07:12:26;101771.63;;;16.87;45.03
63204;BME280;49297;43.210;27.914;2023-05-12T07:14:52;101781.75;;;16.93;45.53
63204;BME280;49297;43.210;27.914;2023-05-12T07:17:18;101773.38;;;16.97;45.35
63204;BME280;49297;43.210;27.914;2023-05-12T07:19:44;101774.28;;;17.05;45.61
63204;BME280;49297;43.210;27.914;2023-05-12T07:22:10;101776.03;;;17.15;45.16
63204;BME280;49297;43.210;27.914;2023-05-12T07:24:42;101780.16;;;17.27;44.42
63204;BME280;49297;43.210;27.914;2023-05-12T07:27:08;101785.13;;;17.40;43.96
63204;BME280;49297;43.210;27.914;2023-05-12T07:29:34;101784.31;;;17.47;43.75
63204;BME280;49297;43.210;27.914;2023-05-12T07:32:00;101785.06;;;17.58;43.68
63204;BME280;49297;43.210;27.914;2023-05-12T07:34:27;101789.41;;;17.59;42.76
63204;BME280;49297;43.210;27.914;2023-05-12T07:36:53;101783.59;;;17.63;42.16
63204;BME280;49297;43.210;27.914;2023-05-12T07:39:19;101786.56;;;17.60;41.91
63204;BME280;49297;43.210;27.914;2023-05-12T07:41:53;101792.25;;;17.57;42.43
63204;BME280;49297;43.210;27.914;2023-05-12T07:44:20;101798.13;;;17.61;42.56
63204;BME280;49297;43.210;27.914;2023-05-12T07:46:46;101791.41;;;17.57;42.29
63204;BME280;49297;43.210;27.914;2023-05-12T07:49:18;101787.22;;;17.54;42.72
63204;BME280;49297;43.210;27.914;2023-05-12T07:51:46;101797.59;;;17.57;42.80
63204;BME280;49297;43.210;27.914;2023-05-12T07:54:12;101808.00;;;17.60;42.24
63204;BME280;49297;43.210;27.914;2023-05-12T07:56:39;101800.38;;;17.47;42.33
63204;BME280;49297;43.210;27.914;2023-05-12T07:59:05;101806.25;;;17.51;42.65
63204;BME280;49297;43.210;27.914;2023-05-12T08:01:31;101804.16;;;17.63;43.15
63204;BME280;49297;43.210;27.914;2023-05-12T08:03:58;101806.00;;;17.62;42.92
63204;BME280;49297;43.210;27.914;2023-05-12T08:06:24;101792.66;;;17.70;43.14
63204;BME280;49297;43.210;27.914;2023-05-12T08:09:10;101803.66;;;17.85;42.87
63204;BME280;49297;43.210;27.914;2023-05-12T08:11:37;101800.66;;;17.88;42.56
63204;BME280;49297;43.210;27.914;2023-05-12T08:14:03;101803.56;;;18.03;43.30
63204;BME280;49297;43.210;27.914;2023-05-12T08:16:28;101812.69;;;18.19;42.79
63204;BME280;49297;43.210;27.914;2023-05-12T08:18:55;101804.34;;;18.30;42.51
63204;BME280;49297;43.210;27.914;2023-05-12T08:21:23;101813.25;;;18.39;42.16
63204;BME280;49297;43.210;27.914;2023-05-12T08:23:49;101809.94;;;18.45;40.19
63204;BME280;49297;43.210;27.914;2023-05-12T08:26:16;101805.53;;;18.36;41.16
63204;BME280;49297;43.210;27.914;2023-05-12T08:28:42;101811.25;;;18.41;42.22
63204;BME280;49297;43.210;27.914;2023-05-12T08:31:08;101817.16;;;18.53;44.92
63204;BME280;49297;43.210;27.914;2023-05-12T08:33:35;101819.03;;;18.60;46.14
63204;BME280;49297;43.210;27.914;2023-05-12T08:36:01;101822.34;;;18.46;47.61
63204;BME280;49297;43.210;27.914;2023-05-12T08:38:26;101818.78;;;18.37;48.49
63204;BME280;49297;43.210;27.914;2023-05-12T08:43:48;101828.69;;;18.37;49.77
63204;BME280;49297;43.210;27.914;2023-05-12T08:46:15;101831.31;;;18.29;48.74
63204;BME280;49297;43.210;27.914;2023-05-12T08:48:44;101833.38;;;18.35;49.76
63204;BME280;49297;43.210;27.914;2023-05-12T08:51:13;101829.66;;;18.36;50.49
63204;BME280;49297;43.210;27.914;2023-05-12T08:53:41;101842.59;;;18.40;50.98
63204;BME280;49297;43.210;27.914;2023-05-12T08:56:09;101838.56;;;18.36;50.52
63204;BME280;49297;43.210;27.914;2023-05-12T08:58:36;101840.56;;;18.34;50.41
63204;BME280;49297;43.210;27.914;2023-05-12T09:01:04;101836.91;;;18.43;50.34
63204;BME280;49297;43.210;27.914;2023-05-12T09:03:34;101835.59;;;18.48;50.58
63204;BME280;49297;43.210;27.914;2023-05-12T09:06:00;101835.94;;;18.53;50.26
63204;BME280;49297;43.210;27.914;2023-05-12T09:08:28;101838.63;;;18.53;50.25
63204;BME280;49297;43.210;27.914;2023-05-12T09:10:58;101830.41;;;18.62;50.24
63204;BME280;49297;43.210;27.914;2023-05-12T09:13:44;101840.88;;;18.74;49.70
63204;BME280;49297;43.210;27.914;2023-05-12T09:16:18;101827.97;;;18.77;49.92
63204;BME280;49297;43.210;27.914;2023-05-12T09:18:50;101832.16;;;18.80;49.91
63204;BME280;49297;43.210;27.914;2023-05-12T09:21:16;101828.84;;;18.94;49.16
63204;BME280;49297;43.210;27.914;2023-05-12T09:23:56;101835.09;;;19.11;48.55
63204;BME280;49297;43.210;27.914;2023-05-12T09:26:25;101834.22;;;19.02;47.64
63204;BME280;49297;43.210;27.914;2023-05-12T09:28:54;101825.16;;;18.95;48.51
63204;BME280;49297;43.210;27.914;2023-05-12T09:31:23;101841.44;;;19.02;48.68
63204;BME280;49297;43.210;27.914;2023-05-12T09:33:50;101822.31;;;18.97;48.97
63204;BME280;49297;43.210;27.914;2023-05-12T09:36:22;101826.66;;;18.81;46.51
63204;BME280;49297;43.210;27.914;2023-05-12T09:39:04;101819.75;;;18.79;48.63
63204;BME280;49297;43.210;27.914;2023-05-12T09:41:40;101825.28;;;18.77;48.27
63204;BME280;49297;43.210;27.914;2023-05-12T09:44:08;101817.84;;;18.55;48.69
63204;BME280;49297;43.210;27.914;2023-05-12T09:46:34;101831.41;;;18.53;48.91
63204;BME280;49297;43.210;27.914;2023-05-12T09:49:01;101819.97;;;18.43;49.72
63204;BME280;49297;43.210;27.914;2023-05-12T09:51:32;101827.69;;;18.38;49.28
63204;BME280;49297;43.210;27.914;2023-05-12T09:54:00;101823.28;;;18.29;49.31
63204;BME280;49297;43.210;27.914;2023-05-12T09:56:27;101825.97;;;18.29;49.94
63204;BME280;49297;43.210;27.914;2023-05-12T09:58:56;101822.44;;;18.28;49.24
63204;BME280;49297;43.210;27.914;2023-05-12T10:01:23;101813.44;;;18.37;48.99
63204;BME280;49297;43.210;27.914;2023-05-12T10:03:54;101815.78;;;18.40;49.12
63204;BME280;49297;43.210;27.914;2023-05-12T10:06:30;101814.66;;;18.51;48.92
63204;BME280;49297;43.210;27.914;2023-05-12T10:09:23;101824.91;;;18.56;49.27
63204;BME280;49297;43.210;27.914;2023-05-12T10:11:51;101811.34;;;18.57;48.82
63204;BME280;49297;43.210;27.914;2023-05-12T10:14:17;101811.13;;;18.51;48.64
63204;BME280;49297;43.210;27.914;2023-05-12T10:16:45;101813.66;;;18.60;48.04
63204;BME280;49297;43.210;27.914;2023-05-12T10:19:12;101821.34;;;18.55;47.25
63204;BME280;49297;43.210;27.914;2023-05-12T10:21:41;101817.69;;;18.56;47.37
63204;BME280;49297;43.210;27.914;2023-05-12T10:24:08;101814.34;;;18.54;47.60
63204;BME280;49297;43.210;27.914;2023-05-12T10:26:36;101812.47;;;18.55;47.06
63204;BME280;49297;43.210;27.914;2023-05-12T10:29:04;101815.00;;;18.56;46.67
63204;BME280;49297;43.210;27.914;2023-05-12T10:31:30;101820.69;;;18.53;46.09
63204;BME280;49297;43.210;27.914;2023-05-12T10:33:59;101810.31;;;18.58;46.01
63204;BME280;49297;43.210;27.914;2023-05-12T10:36:26;101805.97;;;18.65;45.71
63204;BME280;49297;43.210;27.914;2023-05-12T10:38:52;101812.47;;;18.55;45.57
63204;BME280;49297;43.210;27.914;2023-05-12T10:41:33;101816.19;;;18.62;46.25
63204;BME280;49297;43.210;27.914;2023-05-12T10:44:01;101811.88;;;18.86;46.10
63204;BME280;49297;43.210;27.914;2023-05-12T10:46:26;101814.41;;;19.03;44.87
63204;BME280;49297;43.210;27.914;2023-05-12T10:51:27;101809.75;;;19.22;43.53
63204;BME280;49297;43.210;27.914;2023-05-12T10:53:59;101812.09;;;19.17;41.79
63204;BME280;49297;43.210;27.914;2023-05-12T10:56:46;101817.13;;;19.20;42.18
63204;BME280;49297;43.210;27.914;2023-05-12T10:59:13;101809.91;;;19.20;41.92
63204;BME280;49297;43.210;27.914;2023-05-12T11:07:23;101799.81;;;18.81;41.76
63204;BME280;49297;43.210;27.914;2023-05-12T11:09:53;101807.16;;;18.79;42.48
63204;BME280;49297;43.210;27.914;2023-05-12T11:12:20;101811.34;;;18.74;41.59
63204;BME280;49297;43.210;27.914;2023-05-12T11:14:47;101808.50;;;18.75;42.04
63204;BME280;49297;43.210;27.914;2023-05-12T11:17:14;101816.88;;;18.72;42.51
63204;BME280;49297;43.210;27.914;2023-05-12T11:19:45;101817.19;;;18.69;43.08
63204;BME280;49297;43.210;27.914;2023-05-12T11:22:12;101820.91;;;18.76;43.36
63204;BME280;49297;43.210;27.914;2023-05-12T11:24:43;101816.72;;;18.74;42.17
63204;BME280;49297;43.210;27.914;2023-05-12T11:27:13;101815.03;;;18.64;41.84
63204;BME280;49297;43.210;27.914;2023-05-12T11:29:41;101814.56;;;18.77;41.64
63204;BME280;49297;43.210;27.914;2023-05-12T11:32:11;101814.88;;;18.74;40.58
63204;BME280;49297;43.210;27.914;2023-05-12T11:34:37;101818.75;;;18.72;40.29
63204;BME280;49297;43.210;27.914;2023-05-12T11:37:05;101813.41;;;18.88;40.74
63204;BME280;49297;43.210;27.914;2023-05-12T11:39:35;101827.22;;;19.18;39.35
63204;BME280;49297;43.210;27.914;2023-05-12T11:42:06;101809.56;;;19.40;38.26
63204;BME280;49297;43.210;27.914;2023-05-12T11:44:35;101817.94;;;19.53;39.23
63204;BME280;49297;43.210;27.914;2023-05-12T11:47:13;101825.31;;;19.51;39.33
63204;BME280;49297;43.210;27.914;2023-05-12T11:49:49;101814.59;;;19.43;39.09
63204;BME280;49297;43.210;27.914;2023-05-12T11:52:18;101810.72;;;19.46;39.38
63204;BME280;49297;43.210;27.914;2023-05-12T11:54:58;101817.59;;;19.56;40.16
63204;BME280;49297;43.210;27.914;2023-05-12T11:59:59;101821.09;;;19.82;39.30
63204;BME280;49297;43.210;27.914;2023-05-12T12:02:26;101816.31;;;20.08;38.73
63204;BME280;49297;43.210;27.914;2023-05-12T12:04:54;101811.84;;;20.32;36.68
63204;BME280;49297;43.210;27.914;2023-05-12T12:07:30;101809.09;;;20.48;37.13
63204;BME280;49297;43.210;27.914;2023-05-12T12:09:57;101822.47;;;20.65;36.11
63204;BME280;49297;43.210;27.914;2023-05-12T12:12:26;101824.03;;;20.51;34.47
63204;BME280;49297;43.210;27.914;2023-05-12T12:14:54;101817.03;;;20.33;35.05
63204;BME280;49297;43.210;27.914;2023-05-12T12:17:24;101812.91;;;20.23;35.18
63204;BME280;49297;43.210;27.914;2023-05-12T12:19:56;101811.91;;;20.24;35.79
63204;BME280;49297;43.210;27.914;2023-05-12T12:22:22;101807.50;;;20.31;36.02
63204;BME280;49297;43.210;27.914;2023-05-12T12:24:50;101811.53;;;20.66;36.48
63204;BME280;49297;43.210;27.914;2023-05-12T12:27:16;101812.06;;;21.08;34.96
63204;BME280;49297;43.210;27.914;2023-05-12T12:29:42;101804.06;;;21.38;34.13
63204;BME280;49297;43.210;27.914;2023-05-12T12:32:08;101799.78;;;21.66;33.28
63204;BME280;49297;43.210;27.914;2023-05-12T12:34:35;101796.78;;;21.76;32.70
63204;BME280;49297;43.210;27.914;2023-05-12T12:37:01;101806.19;;;21.95;32.41
63204;BME280;49297;43.210;27.914;2023-05-12T12:39:26;101806.84;;;22.27;32.11
63204;BME280;49297;43.210;27.914;2023-05-12T12:41:52;101807.09;;;22.69;31.99
63204;BME280;49297;43.210;27.914;2023-05-12T12:44:18;101816.09;;;22.97;31.75
63204;BME280;49297;43.210;27.914;2023-05-12T12:46:45;101812.13;;;23.15;30.65
63204;BME280;49297;43.210;27.914;2023-05-12T12:49:12;101803.84;;;23.16;30.46
63204;BME280;49297;43.210;27.914;2023-05-12T12:51:37;101810.69;;;23.12;29.56
63204;BME280;49297;43.210;27.914;2023-05-12T12:54:09;101805.91;;;22.93;29.77
63204;BME280;49297;43.210;27.914;2023-05-12T12:56:36;101800.53;;;22.56;30.24
63204;BME280;49297;43.210;27.914;2023-05-12T12:59:03;101806.25;;;22.17;30.61